Time;durP1;ratioP1;P1;durP2;ratioP2;P2;SDS_P1;SDS_P2;PMS_P1;PMS_P2;Temp;Humidity;BMP_temperature;BMP_pressure;BME280_temperature;BME280_humidity;BME280_pressure;Samples;Min_cycle;Max_cycle;Signal;HPM_P1;HPM_P2
2024/03/06 00:06:39;;;;;;;39.15;24.13;;;6.50;99.90;;;;;;20689583;28;20433;-38
2024/03/06 00:16:40;;;;;;;42.95;27.40;;;6.60;99.90;;;;;;20699676;28;20581;-38
2024/03/06 00:26:42;;;;;;;49.33;28.87;;;6.70;99.90;;;;;;20660260;28;20034;-39
2024/03/06 00:36:43;;;;;;;42.28;27.42;;;6.80;99.90;;;;;;20676271;28;20046;-38
2024/03/06 00:46:44;;;;;;;53.22;31.67;;;6.80;99.90;;;;;;20685429;28;20592;-39
2024/03/06 00:56:44;;;;;;;44.90;28.60;;;6.90;99.90;;;;;;20691246;28;20537;-39
2024/03/06 01:06:46;;;;;;;48.03;28.55;;;6.90;99.90;;;;;;20666209;28;20140;-39
2024/03/06 01:16:46;;;;;;;48.33;30.42;;;6.90;99.90;;;;;;20687939;28;20045;-39
2024/03/06 01:26:47;;;;;;;49.58;30.95;;;6.90;99.90;;;;;;20692604;28;20057;-39
2024/03/06 01:36:48;;;;;;;42.50;28.17;;;6.90;99.90;;;;;;20663516;28;20590;-38
2024/03/06 01:46:48;;;;;;;51.42;30.42;;;6.90;99.90;;;;;;20661070;28;20050;-39
2024/03/06 01:56:51;;;;;;;45.80;28.95;;;6.80;99.90;;;;;;20691340;28;20046;-39
2024/03/06 02:06:51;;;;;;;58.63;33.10;;;6.80;99.90;;;;;;20684975;28;20054;-39
2024/03/06 02:16:52;;;;;;;52.92;31.95;;;6.80;99.90;;;;;;20630801;28;20042;-39
2024/03/06 02:26:53;;;;;;;45.88;29.17;;;6.80;99.90;;;;;;20694881;28;20048;-39
2024/03/06 02:36:54;;;;;;;53.03;30.73;;;6.80;99.90;;;;;;20675009;28;20069;-39
2024/03/06 02:46:54;;;;;;;48.92;30.55;;;6.90;99.90;;;;;;20653427;28;20048;-39
2024/03/06 02:56:55;;;;;;;50.38;30.10;;;6.90;99.90;;;;;;20677242;28;20040;-39
2024/03/06 03:06:55;;;;;;;49.55;30.25;;;6.80;99.90;;;;;;20664185;28;20038;-39
2024/03/06 03:16:56;;;;;;;51.30;31.30;;;6.80;99.90;;;;;;20678735;28;22370;-39
2024/03/06 03:26:56;;;;;;;53.63;31.80;;;6.80;99.90;;;;;;20680538;28;20608;-42
2024/03/06 03:36:57;;;;;;;50.65;31.30;;;6.80;99.90;;;;;;20695199;28;20539;-39
2024/03/06 03:46:58;;;;;;;49.67;31.00;;;6.80;99.90;;;;;;20690890;28;20082;-39
2024/03/06 03:56:59;;;;;;;55.72;31.90;;;6.80;99.90;;;;;;20694990;28;20068;-39
2024/03/06 04:07:01;;;;;;;50.30;30.27;;;6.80;99.90;;;;;;20692344;28;20045;-39
2024/03/06 04:17:03;;;;;;;58.80;33.03;;;6.80;99.90;;;;;;20640997;28;20487;-39
2024/03/06 04:27:04;;;;;;;47.03;30.65;;;6.80;99.90;;;;;;20667718;28;20038;-39
2024/03/06 04:37:05;;;;;;;55.13;33.08;;;6.80;99.90;;;;;;20676330;28;20049;-39
2024/03/06 04:47:05;;;;;;;56.80;33.70;;;6.80;99.90;;;;;;20609343;28;20240;-39
2024/03/06 04:57:06;;;;;;;54.88;33.03;;;6.80;99.90;;;;;;20664641;28;20634;-39
2024/03/06 05:07:06;;;;;;;51.03;31.67;;;6.70;99.90;;;;;;20670427;28;20757;-39
2024/03/06 05:17:10;;;;;;;53.72;32.15;;;6.70;99.90;;;;;;20612758;28;20137;-39
2024/03/06 05:27:16;;;;;;;58.75;34.78;;;6.50;99.90;;;;;;20676485;28;20050;-38
2024/03/06 05:37:17;;;;;;;51.60;32.73;;;6.30;99.90;;;;;;20682190;28;21379;-39
2024/03/06 05:47:17;;;;;;;53.70;32.92;;;6.20;99.90;;;;;;20651787;28;20122;-39
2024/03/06 05:57:18;;;;;;;55.75;32.42;;;6.00;99.90;;;;;;20664714;28;20137;-40
2024/03/06 06:07:19;;;;;;;54.70;31.65;;;5.80;99.90;;;;;;20676687;28;20531;-40
2024/03/06 06:17:20;;;;;;;55.97;32.50;;;5.80;99.90;;;;;;20652326;28;20462;-39
2024/03/06 06:27:21;;;;;;;54.58;31.90;;;5.80;99.90;;;;;;20702392;28;20079;-41
2024/03/06 06:37:21;;;;;;;60.92;34.42;;;5.70;99.90;;;;;;20710300;28;20054;-39
2024/03/06 06:47:22;;;;;;;75.00;38.17;;;5.60;99.90;;;;;;20692911;28;20067;-39
2024/03/06 06:57:23;;;;;;;61.90;34.73;;;5.70;99.90;;;;;;20715736;28;20049;-41
2024/03/06 07:07:23;;;;;;;64.80;35.60;;;5.80;99.90;;;;;;20696648;28;20041;-39
2024/03/06 07:17:24;;;;;;;74.90;36.08;;;5.70;99.90;;;;;;20714124;28;20042;-39
2024/03/06 07:27:24;;;;;;;66.35;37.13;;;5.80;99.90;;;;;;20705355;28;20099;-39
2024/03/06 07:37:25;;;;;;;69.70;40.47;;;5.80;99.90;;;;;;20708748;28;20088;-41
2024/03/06 07:47:26;;;;;;;67.87;37.57;;;5.80;99.90;;;;;;20696209;28;20033;-38
2024/03/06 07:57:27;;;;;;;71.45;40.88;;;6.00;99.90;;;;;;20653727;28;20069;-39
2024/03/06 08:07:28;;;;;;;75.35;42.38;;;6.30;99.90;;;;;;20658536;28;20037;-39
2024/03/06 08:17:29;;;;;;;73.68;41.05;;;6.50;99.90;;;;;;20664074;28;20296;-39
2024/03/06 08:27:30;;;;;;;72.20;43.55;;;6.60;99.90;;;;;;20662539;28;20030;-40
2024/03/06 08:37:33;;;;;;;73.10;43.42;;;6.70;99.90;;;;;;20640838;28;20385;-39
2024/03/06 08:47:34;;;;;;;65.00;41.03;;;6.90;99.90;;;;;;20641295;28;20053;-39
2024/03/06 08:57:36;;;;;;;62.83;40.53;;;7.30;99.90;;;;;;20651598;28;20054;-39
2024/03/06 09:07:38;;;;;;;58.70;39.60;;;7.70;99.90;;;;;;20672470;28;20510;-40
2024/03/06 09:17:38;;;;;;;46.30;32.05;;;8.20;99.90;;;;;;20626108;28;20387;-40
2024/03/06 09:27:39;;;;;;;39.37;26.63;;;8.70;99.90;;;;;;20657292;28;20042;-39
2024/03/06 09:37:39;;;;;;;37.53;27.37;;;8.90;92.90;;;;;;20672694;28;20519;-40
2024/03/06 09:47:40;;;;;;;38.88;27.10;;;9.20;67.10;;;;;;20631205;28;20436;-39
2024/03/06 09:57:41;;;;;;;35.13;23.85;;;9.30;43.50;;;;;;20663788;28;20042;-39
2024/03/06 10:07:41;;;;;;;40.05;27.15;;;9.50;21.70;;;;;;20676153;28;20042;-39
2024/03/06 10:17:42;;;;;;;38.33;26.48;;;9.50;23.50;;;;;;20670789;28;20577;-39
2024/03/06 10:27:43;;;;;;;34.55;23.30;;;9.90;16.60;;;;;;20646966;28;20029;-39
2024/03/06 10:37:45;;;;;;;33.60;22.98;;;10.00;10.30;;;;;;20694674;28;20072;-39
2024/03/06 10:47:47;;;;;;;35.65;23.30;;;10.20;6.40;;;;;;20682728;28;20042;-40
2024/03/06 10:57:48;;;;;;;36.65;23.83;;;10.40;1.00;;;;;;20652798;28;20069;-39
2024/03/06 11:07:50;;;;;;;34.22;23.02;;;10.60;1.00;;;;;;20637508;28;20042;-41
2024/03/06 11:17:54;;;;;;;30.73;23.05;;;11.20;1.00;;;;;;20669832;28;20034;-41
2024/03/06 11:28:10;;;;;;;30.30;22.17;;;12.40;1.00;;;;;;20627424;28;20193;-41
2024/03/06 11:38:11;;;;;;;32.05;21.98;;;13.30;1.00;;;;;;20690468;28;22193;-41
2024/03/06 11:48:17;;;;;;;28.95;21.08;;;13.90;1.00;;;;;;20664955;28;20038;-40
2024/03/06 11:58:18;;;;;;;29.25;19.30;;;14.40;1.00;;;;;;20668585;28;20049;-41
2024/03/06 12:08:19;;;;;;;22.85;15.93;;;15.00;1.00;;;;;;20650920;28;20065;-41
2024/03/06 12:18:19;;;;;;;17.05;11.88;;;15.10;1.00;;;;;;20684470;28;20330;-40
2024/03/06 12:28:24;;;;;;;14.27;9.77;;;15.40;1.00;;;;;;20688726;28;20048;-40
2024/03/06 12:38:29;;;;;;;16.50;9.50;;;16.00;1.00;;;;;;20688197;28;21076;-40
2024/03/06 12:48:30;;;;;;;14.70;10.02;;;15.60;1.00;;;;;;20640266;28;20560;-40
2024/03/06 12:58:35;;;;;;;14.35;9.48;;;14.90;1.00;;;;;;20682487;28;20651;-41
2024/03/06 13:08:36;;;;;;;10.75;7.82;;;15.10;1.00;;;;;;20680933;28;20530;-41
2024/03/06 13:18:37;;;;;;;12.32;8.82;;;15.80;1.00;;;;;;20668202;28;20050;-40
2024/03/06 13:28:37;;;;;;;14.88;9.32;;;16.50;1.00;;;;;;20605057;28;20030;-40
2024/03/06 13:38:38;;;;;;;7.63;4.93;;;16.70;1.00;;;;;;20644290;28;20224;-41
2024/03/06 13:48:39;;;;;;;6.83;4.63;;;17.40;1.00;;;;;;20662357;28;20053;-41
2024/03/06 13:58:40;;;;;;;5.45;4.25;;;17.20;1.00;;;;;;20686717;28;20498;-41
2024/03/06 14:08:43;;;;;;;6.60;4.03;;;17.10;1.00;;;;;;20686851;28;20038;-41
2024/03/06 14:18:44;;;;;;;7.38;3.90;;;18.10;1.00;;;;;;20704274;28;20524;-41
2024/03/06 14:28:44;;;;;;;7.63;3.50;;;17.70;1.00;;;;;;20672044;28;20108;-41
2024/03/06 14:38:46;;;;;;;5.78;3.05;;;18.30;1.00;;;;;;20690604;28;20045;-41
2024/03/06 14:48:46;;;;;;;4.78;2.47;;;17.70;1.00;;;;;;20668533;28;20506;-41
2024/03/06 14:58:47;;;;;;;5.55;3.75;;;17.10;1.00;;;;;;20697925;28;20069;-41
2024/03/06 15:08:48;;;;;;;5.07;2.90;;;15.60;1.00;;;;;;20674162;28;20075;-40
2024/03/06 15:18:49;;;;;;;5.38;3.28;;;15.40;1.00;;;;;;20682995;28;20052;-40
2024/03/06 15:28:49;;;;;;;9.00;4.43;;;15.10;1.00;;;;;;20688288;28;20645;-40
2024/03/06 15:38:50;;;;;;;8.65;4.97;;;14.90;1.00;;;;;;20676373;28;20457;-40
2024/03/06 15:48:50;;;;;;;7.50;3.80;;;14.30;1.00;;;;;;20692711;28;20044;-40
2024/03/06 15:58:53;;;;;;;7.70;4.03;;;13.70;1.00;;;;;;20700107;28;20437;-40
2024/03/06 16:08:54;;;;;;;5.70;3.10;;;13.50;1.00;;;;;;20689320;28;20504;-40
2024/03/06 16:18:54;;;;;;;6.07;2.88;;;13.10;1.00;;;;;;20689224;28;20068;-40
2024/03/06 16:28:55;;;;;;;5.05;3.30;;;12.80;1.00;;;;;;20688281;28;20088;-40
2024/03/06 16:38:55;;;;;;;10.67;4.80;;;12.60;1.00;;;;;;20683832;28;20391;-40
2024/03/06 16:48:56;;;;;;;8.00;5.45;;;12.40;1.00;;;;;;20680978;28;20553;-40
2024/03/06 16:58:57;;;;;;;9.23;6.40;;;12.20;1.00;;;;;;20704253;28;20045;-40
2024/03/06 17:08:58;;;;;;;8.70;6.25;;;12.00;1.00;;;;;;20699501;28;20399;-40
2024/03/06 17:19:02;;;;;;;12.02;7.18;;;11.90;1.00;;;;;;20692936;28;20077;-40
2024/03/06 17:29:04;;;;;;;14.82;9.45;;;11.80;1.00;;;;;;20713277;28;20624;-40
2024/03/06 17:39:09;;;;;;;18.63;11.32;;;11.80;1.00;;;;;;20706479;28;20057;-40
2024/03/06 17:49:10;;;;;;;21.05;13.30;;;11.70;1.00;;;;;;20704254;28;20042;-41
2024/03/06 17:59:11;;;;;;;23.45;13.63;;;11.50;1.00;;;;;;20697856;28;20048;-41
2024/03/06 18:09:15;;;;;;;26.63;15.82;;;11.40;1.00;;;;;;20698695;28;20069;-41
2024/03/06 18:19:15;;;;;;;25.95;16.13;;;11.10;1.00;;;;;;20690390;28;20045;-40
2024/03/06 18:29:16;;;;;;;29.63;16.90;;;10.80;1.00;;;;;;20691964;28;20038;-40
2024/03/06 18:39:17;;;;;;;30.15;17.70;;;10.60;1.00;;;;;;20691510;28;20042;-40
2024/03/06 18:49:21;;;;;;;29.80;17.58;;;10.30;1.00;;;;;;20689987;28;20216;-40
2024/03/06 18:59:22;;;;;;;30.27;18.00;;;10.20;1.00;;;;;;20687682;28;20584;-41
2024/03/06 19:09:22;;;;;;;30.58;17.52;;;10.00;1.00;;;;;;20681227;28;20113;-40
2024/03/06 19:19:23;;;;;;;29.33;17.65;;;9.80;1.00;;;;;;20666811;28;20409;-40
2024/03/06 19:29:25;;;;;;;28.65;18.55;;;9.70;1.00;;;;;;20690895;28;20063;-40
2024/03/06 19:39:25;;;;;;;35.47;19.48;;;9.50;1.00;;;;;;20682780;28;20540;-40
2024/03/06 19:49:28;;;;;;;34.08;19.70;;;9.40;1.00;;;;;;20689609;28;20042;-40
2024/03/06 19:59:29;;;;;;;35.47;19.98;;;9.30;1.00;;;;;;20692375;28;20053;-40
2024/03/06 20:09:30;;;;;;;39.80;21.83;;;9.20;1.00;;;;;;20694907;28;20583;-40
2024/03/06 20:19:31;;;;;;;38.65;22.52;;;9.10;1.00;;;;;;20689621;28;20481;-40
2024/03/06 20:29:32;;;;;;;41.05;23.73;;;9.00;1.00;;;;;;20684962;28;20090;-40
2024/03/06 20:39:35;;;;;;;37.22;23.02;;;8.80;1.00;;;;;;20685649;28;20165;-40
2024/03/06 20:49:36;;;;;;;40.92;23.23;;;8.70;1.00;;;;;;20688422;28;20048;-40
2024/03/06 20:59:36;;;;;;;39.15;21.88;;;8.60;1.00;;;;;;20694252;28;20042;-40
2024/03/06 21:09:39;;;;;;;39.78;22.98;;;8.50;1.00;;;;;;20687934;28;20128;-40
2024/03/06 21:19:39;;;;;;;44.05;23.70;;;8.30;1.00;;;;;;20689470;28;20050;-39
2024/03/06 21:29:40;;;;;;;42.57;24.20;;;8.20;1.00;;;;;;20673394;28;20116;-40
2024/03/06 21:39:41;;;;;;;47.05;25.75;;;8.10;1.00;;;;;;20686107;28;20863;-40
2024/03/06 21:49:41;;;;;;;46.13;24.47;;;7.90;1.10;;;;;;20689503;28;20116;-40
2024/03/06 21:59:42;;;;;;;40.97;23.10;;;7.80;3.80;;;;;;20694782;28;20544;-40
2024/03/06 22:09:43;;;;;;;44.58;24.00;;;7.70;8.00;;;;;;20700182;28;20033;-40
2024/03/06 22:19:43;;;;;;;47.25;25.05;;;7.60;7.80;;;;;;20674828;28;20041;-40
2024/03/06 22:29:44;;;;;;;46.85;24.52;;;7.50;10.70;;;;;;20700746;28;20438;-40
2024/03/06 22:39:44;;;;;;;44.65;24.55;;;7.30;17.50;;;;;;20704072;28;20128;-40
2024/03/06 22:49:45;;;;;;;46.20;24.05;;;7.10;16.50;;;;;;20706798;28;20049;-40
2024/03/06 22:59:46;;;;;;;42.15;24.15;;;7.10;18.10;;;;;;20696010;28;20049;-40
2024/03/06 23:09:46;;;;;;;50.05;25.55;;;6.90;23.80;;;;;;20707340;28;20034;-40
2024/03/06 23:19:47;;;;;;;45.47;24.95;;;6.90;29.00;;;;;;20689002;28;20057;-40
2024/03/06 23:29:47;;;;;;;50.08;25.15;;;6.90;29.60;;;;;;20687316;28;20034;-40
2024/03/06 23:39:48;;;;;;;43.60;24.35;;;6.70;29.70;;;;;;20687663;28;20050;-40
2024/03/06 23:49:49;;;;;;;46.85;24.77;;;6.60;30.40;;;;;;20687158;28;23023;-39
2024/03/06 23:59:49;;;;;;;48.13;24.63;;;6.50;35.40;;;;;;20688484;28;20613;-40
